sensor_id;sensor_type;location;lat;lon;timestamp;P1;durP1;ratioP1;P2;durP2;ratioP2
57331;SDS011;43164;50.908;18.092;2024-02-21T00:01:28;17.70;;;5.90;;
57331;SDS011;43164;50.908;18.092;2024-02-21T00:03:56;18.00;;;5.50;;
57331;SDS011;43164;50.908;18.092;2024-02-21T00:06:24;22.00;;;6.10;;
57331;SDS011;43164;50.908;18.092;2024-02-21T00:08:51;17.80;;;5.70;;
57331;SDS011;43164;50.908;18.092;2024-02-21T00:11:19;20.00;;;5.80;;
57331;SDS011;43164;50.908;18.092;2024-02-21T00:13:57;17.90;;;6.00;;
57331;SDS011;43164;50.908;18.092;2024-02-21T00:16:23;17.30;;;5.70;;
57331;SDS011;43164;50.908;18.092;2024-02-21T00:18:51;21.20;;;5.60;;
57331;SDS011;43164;50.908;18.092;2024-02-21T00:21:18;20.00;;;6.20;;
57331;SDS011;43164;50.908;18.092;2024-02-21T00:23:46;19.80;;;5.40;;
57331;SDS011;43164;50.908;18.092;2024-02-21T00:26:14;15.60;;;6.20;;
57331;SDS011;43164;50.908;18.092;2024-02-21T00:28:42;13.80;;;5.20;;
57331;SDS011;43164;50.908;18.092;2024-02-21T00:31:10;20.10;;;5.40;;
57331;SDS011;43164;50.908;18.092;2024-02-21T00:33:36;16.90;;;5.60;;
57331;SDS011;43164;50.908;18.092;2024-02-21T00:36:04;20.50;;;5.70;;
57331;SDS011;43164;50.908;18.092;2024-02-21T00:38:32;18.90;;;5.30;;
57331;SDS011;43164;50.908;18.092;2024-02-21T00:41:00;21.30;;;5.80;;
57331;SDS011;43164;50.908;18.092;2024-02-21T00:43:28;20.40;;;5.60;;
57331;SDS011;43164;50.908;18.092;2024-02-21T00:45:55;19.10;;;6.00;;
57331;SDS011;43164;50.908;18.092;2024-02-21T00:48:23;20.00;;;5.30;;
57331;SDS011;43164;50.908;18.092;2024-02-21T00:50:50;18.60;;;5.80;;
57331;SDS011;43164;50.908;18.092;2024-02-21T00:53:17;16.90;;;5.90;;
57331;SDS011;43164;50.908;18.092;2024-02-21T00:55:44;18.60;;;6.60;;
57331;SDS011;43164;50.908;18.092;2024-02-21T00:58:12;17.60;;;5.90;;
57331;SDS011;43164;50.908;18.092;2024-02-21T01:00:39;15.10;;;4.90;;
57331;SDS011;43164;50.908;18.092;2024-02-21T01:03:07;18.70;;;5.10;;
57331;SDS011;43164;50.908;18.092;2024-02-21T01:05:35;24.60;;;5.70;;
57331;SDS011;43164;50.908;18.092;2024-02-21T01:08:03;17.30;;;5.40;;
57331;SDS011;43164;50.908;18.092;2024-02-21T01:10:32;15.30;;;5.10;;
57331;SDS011;43164;50.908;18.092;2024-02-21T01:13:01;16.60;;;5.20;;
57331;SDS011;43164;50.908;18.092;2024-02-21T01:15:31;22.80;;;5.40;;
57331;SDS011;43164;50.908;18.092;2024-02-21T01:18:00;20.80;;;5.20;;
57331;SDS011;43164;50.908;18.092;2024-02-21T01:20:29;15.30;;;5.20;;
57331;SDS011;43164;50.908;18.092;2024-02-21T01:23:00;17.70;;;5.10;;
57331;SDS011;43164;50.908;18.092;2024-02-21T01:25:29;17.90;;;5.80;;
57331;SDS011;43164;50.908;18.092;2024-02-21T01:27:57;18.30;;;5.60;;
57331;SDS011;43164;50.908;18.092;2024-02-21T01:30:26;16.60;;;5.30;;
57331;SDS011;43164;50.908;18.092;2024-02-21T01:32:58;17.40;;;5.20;;
57331;SDS011;43164;50.908;18.092;2024-02-21T01:35:29;17.00;;;5.20;;
57331;SDS011;43164;50.908;18.092;2024-02-21T01:38:02;16.60;;;5.00;;
57331;SDS011;43164;50.908;18.092;2024-02-21T01:40:30;22.00;;;5.70;;
57331;SDS011;43164;50.908;18.092;2024-02-21T01:43:00;18.40;;;5.40;;
57331;SDS011;43164;50.908;18.092;2024-02-21T01:45:30;17.10;;;5.10;;
57331;SDS011;43164;50.908;18.092;2024-02-21T01:48:01;16.10;;;4.50;;
57331;SDS011;43164;50.908;18.092;2024-02-21T01:50:31;16.90;;;4.50;;
57331;SDS011;43164;50.908;18.092;2024-02-21T01:53:01;15.70;;;4.40;;
57331;SDS011;43164;50.908;18.092;2024-02-21T01:55:35;15.20;;;3.60;;
57331;SDS011;43164;50.908;18.092;2024-02-21T01:58:03;19.50;;;4.00;;
57331;SDS011;43164;50.908;18.092;2024-02-21T02:00:32;14.90;;;4.20;;
57331;SDS011;43164;50.908;18.092;2024-02-21T02:03:00;14.70;;;4.20;;
57331;SDS011;43164;50.908;18.092;2024-02-21T02:05:29;13.90;;;4.20;;
57331;SDS011;43164;50.908;18.092;2024-02-21T02:08:06;15.90;;;4.20;;
57331;SDS011;43164;50.908;18.092;2024-02-21T02:10:36;11.50;;;3.40;;
57331;SDS011;43164;50.908;18.092;2024-02-21T02:13:05;16.70;;;3.60;;
57331;SDS011;43164;50.908;18.092;2024-02-21T02:18:14;15.00;;;3.70;;
57331;SDS011;43164;50.908;18.092;2024-02-21T02:20:47;16.70;;;4.10;;
57331;SDS011;43164;50.908;18.092;2024-02-21T02:26:13;15.50;;;4.10;;
57331;SDS011;43164;50.908;18.092;2024-02-21T02:28:47;14.30;;;4.20;;
57331;SDS011;43164;50.908;18.092;2024-02-21T02:31:16;18.60;;;4.20;;
57331;SDS011;43164;50.908;18.092;2024-02-21T02:33:43;13.60;;;4.20;;
57331;SDS011;43164;50.908;18.092;2024-02-21T02:36:13;17.90;;;4.30;;
57331;SDS011;43164;50.908;18.092;2024-02-21T02:38:46;16.20;;;3.90;;
57331;SDS011;43164;50.908;18.092;2024-02-21T02:41:19;11.50;;;3.80;;
57331;SDS011;43164;50.908;18.092;2024-02-21T02:43:46;13.40;;;4.10;;
57331;SDS011;43164;50.908;18.092;2024-02-21T02:46:14;16.50;;;3.70;;
57331;SDS011;43164;50.908;18.092;2024-02-21T02:48:43;12.90;;;3.90;;
57331;SDS011;43164;50.908;18.092;2024-02-21T02:51:12;14.70;;;4.10;;
57331;SDS011;43164;50.908;18.092;2024-02-21T02:53:42;17.40;;;3.80;;
57331;SDS011;43164;50.908;18.092;2024-02-21T02:56:20;15.10;;;4.50;;
57331;SDS011;43164;50.908;18.092;2024-02-21T02:58:49;12.10;;;3.30;;
57331;SDS011;43164;50.908;18.092;2024-02-21T03:01:17;10.90;;;3.50;;
57331;SDS011;43164;50.908;18.092;2024-02-21T03:03:46;9.90;;;3.40;;
57331;SDS011;43164;50.908;18.092;2024-02-21T03:06:17;14.80;;;3.80;;
57331;SDS011;43164;50.908;18.092;2024-02-21T03:08:47;14.30;;;3.70;;
57331;SDS011;43164;50.908;18.092;2024-02-21T03:11:15;12.30;;;3.50;;
57331;SDS011;43164;50.908;18.092;2024-02-21T03:13:46;12.80;;;3.80;;
57331;SDS011;43164;50.908;18.092;2024-02-21T03:16:16;13.00;;;3.90;;
57331;SDS011;43164;50.908;18.092;2024-02-21T03:18:46;12.60;;;3.70;;
57331;SDS011;43164;50.908;18.092;2024-02-21T03:21:15;13.00;;;3.60;;
57331;SDS011;43164;50.908;18.092;2024-02-21T03:23:43;11.00;;;3.60;;
57331;SDS011;43164;50.908;18.092;2024-02-21T03:26:11;13.10;;;3.80;;
57331;SDS011;43164;50.908;18.092;2024-02-21T03:28:46;14.20;;;3.40;;
57331;SDS011;43164;50.908;18.092;2024-02-21T03:31:15;10.50;;;3.10;;
57331;SDS011;43164;50.908;18.092;2024-02-21T03:33:45;12.90;;;4.00;;
57331;SDS011;43164;50.908;18.092;2024-02-21T03:36:13;13.80;;;4.10;;
57331;SDS011;43164;50.908;18.092;2024-02-21T03:38:43;15.70;;;3.90;;
57331;SDS011;43164;50.908;18.092;2024-02-21T03:41:11;13.50;;;4.20;;
57331;SDS011;43164;50.908;18.092;2024-02-21T03:43:37;12.70;;;3.80;;
57331;SDS011;43164;50.908;18.092;2024-02-21T03:46:05;12.00;;;3.60;;
57331;SDS011;43164;50.908;18.092;2024-02-21T03:48:35;12.20;;;3.90;;
57331;SDS011;43164;50.908;18.092;2024-02-21T03:51:03;15.20;;;4.10;;
57331;SDS011;43164;50.908;18.092;2024-02-21T03:53:31;13.30;;;3.50;;
57331;SDS011;43164;50.908;18.092;2024-02-21T03:56:01;16.70;;;3.90;;
57331;SDS011;43164;50.908;18.092;2024-02-21T03:58:30;15.60;;;4.20;;
57331;SDS011;43164;50.908;18.092;2024-02-21T04:01:03;12.10;;;4.00;;
57331;SDS011;43164;50.908;18.092;2024-02-21T04:03:31;14.20;;;4.50;;
57331;SDS011;43164;50.908;18.092;2024-02-21T04:06:00;13.00;;;3.60;;
57331;SDS011;43164;50.908;18.092;2024-02-21T04:08:30;12.00;;;3.80;;
57331;SDS011;43164;50.908;18.092;2024-02-21T04:10:58;11.50;;;4.10;;
57331;SDS011;43164;50.908;18.092;2024-02-21T04:13:28;12.70;;;3.90;;
57331;SDS011;43164;50.908;18.092;2024-02-21T04:15:58;13.50;;;4.10;;
57331;SDS011;43164;50.908;18.092;2024-02-21T04:18:29;14.40;;;4.00;;
57331;SDS011;43164;50.908;18.092;2024-02-21T04:21:02;11.50;;;4.00;;
57331;SDS011;43164;50.908;18.092;2024-02-21T04:23:35;11.40;;;4.20;;
57331;SDS011;43164;50.908;18.092;2024-02-21T04:26:07;11.10;;;4.00;;
57331;SDS011;43164;50.908;18.092;2024-02-21T04:28:44;11.70;;;4.30;;
57331;SDS011;43164;50.908;18.092;2024-02-21T04:31:15;12.40;;;4.00;;
57331;SDS011;43164;50.908;18.092;2024-02-21T04:33:47;13.30;;;4.20;;
57331;SDS011;43164;50.908;18.092;2024-02-21T04:36:17;14.50;;;4.20;;
57331;SDS011;43164;50.908;18.092;2024-02-21T04:38:47;11.80;;;3.60;;
57331;SDS011;43164;50.908;18.092;2024-02-21T04:41:17;13.10;;;4.40;;
57331;SDS011;43164;50.908;18.092;2024-02-21T04:43:52;13.20;;;3.90;;
57331;SDS011;43164;50.908;18.092;2024-02-21T04:46:21;12.60;;;4.20;;
57331;SDS011;43164;50.908;18.092;2024-02-21T04:48:53;13.30;;;4.30;;
57331;SDS011;43164;50.908;18.092;2024-02-21T04:51:22;15.30;;;4.30;;
57331;SDS011;43164;50.908;18.092;2024-02-21T04:53:57;11.70;;;3.80;;
57331;SDS011;43164;50.908;18.092;2024-02-21T04:56:26;13.60;;;4.20;;
57331;SDS011;43164;50.908;18.092;2024-02-21T04:58:56;12.80;;;3.90;;
57331;SDS011;43164;50.908;18.092;2024-02-21T05:01:24;12.60;;;4.20;;
57331;SDS011;43164;50.908;18.092;2024-02-21T05:03:56;11.20;;;4.60;;
57331;SDS011;43164;50.908;18.092;2024-02-21T05:06:24;12.20;;;4.50;;
57331;SDS011;43164;50.908;18.092;2024-02-21T05:08:53;12.00;;;4.40;;
57331;SDS011;43164;50.908;18.092;2024-02-21T05:11:25;12.40;;;4.00;;
57331;SDS011;43164;50.908;18.092;2024-02-21T05:13:53;12.20;;;4.00;;
57331;SDS011;43164;50.908;18.092;2024-02-21T05:16:22;10.80;;;4.40;;
57331;SDS011;43164;50.908;18.092;2024-02-21T05:18:49;14.50;;;4.30;;
57331;SDS011;43164;50.908;18.092;2024-02-21T05:21:20;13.50;;;4.80;;
57331;SDS011;43164;50.908;18.092;2024-02-21T05:23:48;14.50;;;5.00;;
57331;SDS011;43164;50.908;18.092;2024-02-21T05:26:27;13.20;;;4.40;;
57331;SDS011;43164;50.908;18.092;2024-02-21T05:29:00;13.40;;;4.20;;
57331;SDS011;43164;50.908;18.092;2024-02-21T05:31:42;13.70;;;4.70;;
57331;SDS011;43164;50.908;18.092;2024-02-21T05:34:26;13.80;;;6.00;;
57331;SDS011;43164;50.908;18.092;2024-02-21T05:37:03;14.40;;;6.10;;
57331;SDS011;43164;50.908;18.092;2024-02-21T05:39:32;13.80;;;5.70;;
57331;SDS011;43164;50.908;18.092;2024-02-21T05:42:02;15.40;;;5.40;;
57331;SDS011;43164;50.908;18.092;2024-02-21T05:44:35;13.60;;;5.00;;
57331;SDS011;43164;50.908;18.092;2024-02-21T05:47:08;12.80;;;5.00;;
57331;SDS011;43164;50.908;18.092;2024-02-21T05:49:41;13.30;;;6.00;;
57331;SDS011;43164;50.908;18.092;2024-02-21T05:52:12;12.70;;;5.30;;
57331;SDS011;43164;50.908;18.092;2024-02-21T05:54:42;13.00;;;5.10;;
57331;SDS011;43164;50.908;18.092;2024-02-21T05:57:12;11.80;;;5.30;;
57331;SDS011;43164;50.908;18.092;2024-02-21T05:59:41;17.20;;;5.60;;
57331;SDS011;43164;50.908;18.092;2024-02-21T06:02:10;14.80;;;5.70;;
57331;SDS011;43164;50.908;18.092;2024-02-21T06:04:41;11.70;;;4.60;;
57331;SDS011;43164;50.908;18.092;2024-02-21T06:07:13;16.60;;;5.30;;
57331;SDS011;43164;50.908;18.092;2024-02-21T06:09:42;14.20;;;5.30;;
57331;SDS011;43164;50.908;18.092;2024-02-21T06:12:13;12.50;;;5.40;;
57331;SDS011;43164;50.908;18.092;2024-02-21T06:14:47;13.70;;;4.90;;
57331;SDS011;43164;50.908;18.092;2024-02-21T06:17:18;12.10;;;4.60;;
57331;SDS011;43164;50.908;18.092;2024-02-21T06:19:52;11.70;;;4.90;;
57331;SDS011;43164;50.908;18.092;2024-02-21T06:22:22;12.50;;;4.80;;
57331;SDS011;43164;50.908;18.092;2024-02-21T06:24:52;13.70;;;5.10;;
57331;SDS011;43164;50.908;18.092;2024-02-21T06:27:23;14.00;;;5.50;;
57331;SDS011;43164;50.908;18.092;2024-02-21T06:29:53;15.80;;;6.30;;
57331;SDS011;43164;50.908;18.092;2024-02-21T06:32:21;14.80;;;5.80;;
57331;SDS011;43164;50.908;18.092;2024-02-21T06:34:48;16.90;;;6.10;;
57331;SDS011;43164;50.908;18.092;2024-02-21T06:37:17;13.40;;;6.00;;
57331;SDS011;43164;50.908;18.092;2024-02-21T06:39:44;15.10;;;5.80;;
57331;SDS011;43164;50.908;18.092;2024-02-21T06:42:12;13.90;;;6.10;;
57331;SDS011;43164;50.908;18.092;2024-02-21T06:44:40;15.80;;;5.90;;
57331;SDS011;43164;50.908;18.092;2024-02-21T06:47:08;16.90;;;5.90;;
57331;SDS011;43164;50.908;18.092;2024-02-21T06:49:35;13.00;;;5.40;;
57331;SDS011;43164;50.908;18.092;2024-02-21T06:52:08;13.10;;;5.10;;
57331;SDS011;43164;50.908;18.092;2024-02-21T06:54:35;13.80;;;5.10;;
57331;SDS011;43164;50.908;18.092;2024-02-21T06:57:03;13.30;;;5.10;;
57331;SDS011;43164;50.908;18.092;2024-02-21T06:59:31;12.00;;;5.20;;
57331;SDS011;43164;50.908;18.092;2024-02-21T07:01:58;14.30;;;5.10;;
57331;SDS011;43164;50.908;18.092;2024-02-21T07:04:27;14.50;;;5.20;;
57331;SDS011;43164;50.908;18.092;2024-02-21T07:06:56;14.80;;;5.50;;
57331;SDS011;43164;50.908;18.092;2024-02-21T07:09:24;12.40;;;4.70;;
57331;SDS011;43164;50.908;18.092;2024-02-21T07:11:51;11.70;;;5.00;;
57331;SDS011;43164;50.908;18.092;2024-02-21T07:14:19;12.60;;;5.60;;
57331;SDS011;43164;50.908;18.092;2024-02-21T07:16:46;14.00;;;5.30;;
57331;SDS011;43164;50.908;18.092;2024-02-21T07:19:14;15.00;;;6.00;;
57331;SDS011;43164;50.908;18.092;2024-02-21T07:21:40;16.20;;;5.40;;
57331;SDS011;43164;50.908;18.092;2024-02-21T07:24:09;15.10;;;5.70;;
57331;SDS011;43164;50.908;18.092;2024-02-21T07:26:40;13.20;;;5.70;;
57331;SDS011;43164;50.908;18.092;2024-02-21T07:29:10;17.50;;;6.50;;
57331;SDS011;43164;50.908;18.092;2024-02-21T07:31:44;13.00;;;5.40;;
57331;SDS011;43164;50.908;18.092;2024-02-21T07:36:39;13.20;;;5.50;;
57331;SDS011;43164;50.908;18.092;2024-02-21T07:39:10;12.60;;;5.10;;
57331;SDS011;43164;50.908;18.092;2024-02-21T07:41:37;12.50;;;5.20;;
57331;SDS011;43164;50.908;18.092;2024-02-21T07:44:04;12.90;;;4.60;;
57331;SDS011;43164;50.908;18.092;2024-02-21T07:46:32;15.20;;;5.50;;
57331;SDS011;43164;50.908;18.092;2024-02-21T07:49:00;14.70;;;4.30;;
57331;SDS011;43164;50.908;18.092;2024-02-21T07:51:29;11.30;;;4.80;;
57331;SDS011;43164;50.908;18.092;2024-02-21T07:53:56;10.10;;;4.10;;
57331;SDS011;43164;50.908;18.092;2024-02-21T07:56:27;10.60;;;4.10;;
57331;SDS011;43164;50.908;18.092;2024-02-21T07:58:58;12.00;;;4.10;;
57331;SDS011;43164;50.908;18.092;2024-02-21T08:01:26;8.70;;;4.00;;
57331;SDS011;43164;50.908;18.092;2024-02-21T08:03:53;9.70;;;3.80;;
57331;SDS011;43164;50.908;18.092;2024-02-21T08:06:20;10.90;;;4.00;;
57331;SDS011;43164;50.908;18.092;2024-02-21T08:08:48;15.20;;;4.10;;
57331;SDS011;43164;50.908;18.092;2024-02-21T08:11:16;11.50;;;3.90;;
57331;SDS011;43164;50.908;18.092;2024-02-21T08:13:44;11.10;;;3.50;;
57331;SDS011;43164;50.908;18.092;2024-02-21T08:16:12;12.10;;;3.70;;
57331;SDS011;43164;50.908;18.092;2024-02-21T08:18:40;12.00;;;4.40;;
57331;SDS011;43164;50.908;18.092;2024-02-21T08:21:12;9.80;;;3.40;;
57331;SDS011;43164;50.908;18.092;2024-02-21T08:23:40;9.80;;;3.20;;
57331;SDS011;43164;50.908;18.092;2024-02-21T08:26:08;9.50;;;3.50;;
57331;SDS011;43164;50.908;18.092;2024-02-21T08:28:35;10.40;;;3.40;;
57331;SDS011;43164;50.908;18.092;2024-02-21T08:31:02;10.90;;;3.60;;
57331;SDS011;43164;50.908;18.092;2024-02-21T08:33:29;11.20;;;3.60;;
57331;SDS011;43164;50.908;18.092;2024-02-21T08:35:57;9.50;;;3.60;;
57331;SDS011;43164;50.908;18.092;2024-02-21T08:38:25;12.00;;;3.60;;
57331;SDS011;43164;50.908;18.092;2024-02-21T08:40:53;11.50;;;3.50;;
57331;SDS011;43164;50.908;18.092;2024-02-21T08:43:21;9.40;;;3.60;;
57331;SDS011;43164;50.908;18.092;2024-02-21T08:45:48;13.40;;;4.10;;
57331;SDS011;43164;50.908;18.092;2024-02-21T08:48:16;11.00;;;3.60;;
57331;SDS011;43164;50.908;18.092;2024-02-21T08:50:43;12.50;;;4.00;;
57331;SDS011;43164;50.908;18.092;2024-02-21T08:53:11;10.00;;;3.30;;
57331;SDS011;43164;50.908;18.092;2024-02-21T08:55:39;14.00;;;3.50;;
57331;SDS011;43164;50.908;18.092;2024-02-21T08:58:08;9.30;;;3.30;;
57331;SDS011;43164;50.908;18.092;2024-02-21T09:00:36;11.30;;;3.10;;
57331;SDS011;43164;50.908;18.092;2024-02-21T09:03:04;11.20;;;3.20;;
57331;SDS011;43164;50.908;18.092;2024-02-21T09:05:32;12.20;;;3.60;;
57331;SDS011;43164;50.908;18.092;2024-02-21T09:08:01;10.20;;;3.50;;
57331;SDS011;43164;50.908;18.092;2024-02-21T09:10:29;9.10;;;3.40;;
57331;SDS011;43164;50.908;18.092;2024-02-21T09:12:58;10.80;;;3.30;;
57331;SDS011;43164;50.908;18.092;2024-02-21T09:15:25;12.90;;;3.80;;
57331;SDS011;43164;50.908;18.092;2024-02-21T09:17:52;9.00;;;2.70;;
57331;SDS011;43164;50.908;18.092;2024-02-21T09:20:20;10.20;;;3.10;;
57331;SDS011;43164;50.908;18.092;2024-02-21T09:22:47;11.20;;;3.10;;
57331;SDS011;43164;50.908;18.092;2024-02-21T09:25:15;10.10;;;3.30;;
57331;SDS011;43164;50.908;18.092;2024-02-21T09:27:44;12.00;;;3.50;;
57331;SDS011;43164;50.908;18.092;2024-02-21T09:30:12;10.70;;;2.90;;
57331;SDS011;43164;50.908;18.092;2024-02-21T09:32:40;9.00;;;3.20;;
57331;SDS011;43164;50.908;18.092;2024-02-21T09:35:08;11.10;;;3.40;;
57331;SDS011;43164;50.908;18.092;2024-02-21T09:37:36;9.80;;;3.20;;
57331;SDS011;43164;50.908;18.092;2024-02-21T09:40:05;9.50;;;3.50;;
57331;SDS011;43164;50.908;18.092;2024-02-21T09:42:41;11.80;;;3.50;;
57331;SDS011;43164;50.908;18.092;2024-02-21T09:47:50;10.40;;;3.30;;
57331;SDS011;43164;50.908;18.092;2024-02-21T09:50:25;11.00;;;3.70;;
57331;SDS011;43164;50.908;18.092;2024-02-21T09:52:53;12.20;;;3.60;;
57331;SDS011;43164;50.908;18.092;2024-02-21T09:55:21;11.10;;;3.70;;
57331;SDS011;43164;50.908;18.092;2024-02-21T09:57:49;10.20;;;3.70;;
57331;SDS011;43164;50.908;18.092;2024-02-21T10:00:17;12.40;;;3.80;;
57331;SDS011;43164;50.908;18.092;2024-02-21T10:06:04;10.70;;;3.40;;
57331;SDS011;43164;50.908;18.092;2024-02-21T10:08:33;11.90;;;3.90;;
57331;SDS011;43164;50.908;18.092;2024-02-21T10:11:03;12.20;;;3.70;;
57331;SDS011;43164;50.908;18.092;2024-02-21T10:13:31;11.60;;;3.50;;
57331;SDS011;43164;50.908;18.092;2024-02-21T10:16:03;10.60;;;3.40;;
57331;SDS011;43164;50.908;18.092;2024-02-21T10:18:36;12.40;;;4.30;;
57331;SDS011;43164;50.908;18.092;2024-02-21T10:21:13;12.60;;;3.70;;
57331;SDS011;43164;50.908;18.092;2024-02-21T10:23:41;9.10;;;3.40;;
57331;SDS011;43164;50.908;18.092;2024-02-21T10:26:18;8.60;;;2.90;;
57331;SDS011;43164;50.908;18.092;2024-02-21T10:28:46;10.40;;;3.10;;
57331;SDS011;43164;50.908;18.092;2024-02-21T10:31:28;11.40;;;3.40;;
57331;SDS011;43164;50.908;18.092;2024-02-21T10:33:57;9.90;;;2.80;;
57331;SDS011;43164;50.908;18.092;2024-02-21T10:36:25;10.40;;;3.10;;
57331;SDS011;43164;50.908;18.092;2024-02-21T10:38:53;10.00;;;3.10;;
57331;SDS011;43164;50.908;18.092;2024-02-21T10:41:21;9.70;;;2.90;;
57331;SDS011;43164;50.908;18.092;2024-02-21T10:43:57;8.90;;;3.00;;
57331;SDS011;43164;50.908;18.092;2024-02-21T10:47:19;11.90;;;3.40;;
57331;SDS011;43164;50.908;18.092;2024-02-21T10:49:57;10.30;;;3.20;;
57331;SDS011;43164;50.908;18.092;2024-02-21T10:52:56;12.50;;;3.40;;
57331;SDS011;43164;50.908;18.092;2024-02-21T10:55:38;12.00;;;3.40;;
57331;SDS011;43164;50.908;18.092;2024-02-21T11:00:51;11.90;;;3.30;;
57331;SDS011;43164;50.908;18.092;2024-02-21T11:03:20;14.40;;;4.30;;
57331;SDS011;43164;50.908;18.092;2024-02-21T11:05:56;9.20;;;3.50;;
57331;SDS011;43164;50.908;18.092;2024-02-21T11:08:29;11.10;;;3.30;;
57331;SDS011;43164;50.908;18.092;2024-02-21T11:10:58;12.40;;;3.40;;
57331;SDS011;43164;50.908;18.092;2024-02-21T11:13:36;11.20;;;3.20;;
57331;SDS011;43164;50.908;18.092;2024-02-21T11:16:21;11.20;;;3.60;;
57331;SDS011;43164;50.908;18.092;2024-02-21T11:22:13;10.70;;;3.30;;
57331;SDS011;43164;50.908;18.092;2024-02-21T11:24:45;10.20;;;3.20;;
57331;SDS011;43164;50.908;18.092;2024-02-21T11:27:14;12.00;;;3.60;;
57331;SDS011;43164;50.908;18.092;2024-02-21T11:29:48;11.10;;;3.20;;
57331;SDS011;43164;50.908;18.092;2024-02-21T11:32:22;10.00;;;3.30;;
57331;SDS011;43164;50.908;18.092;2024-02-21T11:34:57;12.90;;;3.40;;
57331;SDS011;43164;50.908;18.092;2024-02-21T11:37:35;11.30;;;3.20;;
57331;SDS011;43164;50.908;18.092;2024-02-21T11:40:04;10.10;;;3.70;;
57331;SDS011;43164;50.908;18.092;2024-02-21T11:42:40;10.50;;;3.30;;
57331;SDS011;43164;50.908;18.092;2024-02-21T11:45:09;9.50;;;3.50;;
57331;SDS011;43164;50.908;18.092;2024-02-21T11:47:38;11.20;;;3.70;;
57331;SDS011;43164;50.908;18.092;2024-02-21T11:50:11;9.50;;;2.80;;
57331;SDS011;43164;50.908;18.092;2024-02-21T11:52:41;12.00;;;3.70;;
57331;SDS011;43164;50.908;18.092;2024-02-21T11:55:12;8.90;;;3.50;;
57331;SDS011;43164;50.908;18.092;2024-02-21T11:57:41;13.30;;;3.70;;
57331;SDS011;43164;50.908;18.092;2024-02-21T12:00:13;12.30;;;3.90;;
57331;SDS011;43164;50.908;18.092;2024-02-21T12:02:41;10.30;;;3.50;;
57331;SDS011;43164;50.908;18.092;2024-02-21T12:05:15;11.00;;;3.80;;
57331;SDS011;43164;50.908;18.092;2024-02-21T12:07:53;12.70;;;4.80;;
57331;SDS011;43164;50.908;18.092;2024-02-21T12:10:23;13.20;;;4.40;;
57331;SDS011;43164;50.908;18.092;2024-02-21T12:13:14;12.60;;;4.20;;
57331;SDS011;43164;50.908;18.092;2024-02-21T12:15:47;10.90;;;3.90;;
57331;SDS011;43164;50.908;18.092;2024-02-21T12:18:24;10.40;;;3.60;;
57331;SDS011;43164;50.908;18.092;2024-02-21T12:23:59;13.50;;;4.10;;
57331;SDS011;43164;50.908;18.092;2024-02-21T12:26:27;11.20;;;3.80;;
57331;SDS011;43164;50.908;18.092;2024-02-21T12:28:55;9.70;;;4.00;;
57331;SDS011;43164;50.908;18.092;2024-02-21T12:31:33;13.20;;;3.90;;
57331;SDS011;43164;50.908;18.092;2024-02-21T12:34:04;10.70;;;4.50;;
57331;SDS011;43164;50.908;18.092;2024-02-21T12:36:32;10.90;;;3.70;;
57331;SDS011;43164;50.908;18.092;2024-02-21T12:39:02;11.00;;;4.10;;
57331;SDS011;43164;50.908;18.092;2024-02-21T12:41:42;14.80;;;4.80;;
57331;SDS011;43164;50.908;18.092;2024-02-21T12:44:14;12.80;;;4.50;;
57331;SDS011;43164;50.908;18.092;2024-02-21T12:46:45;13.10;;;4.50;;
57331;SDS011;43164;50.908;18.092;2024-02-21T12:49:48;13.00;;;5.30;;
57331;SDS011;43164;50.908;18.092;2024-02-21T12:52:29;12.20;;;5.10;;
57331;SDS011;43164;50.908;18.092;2024-02-21T12:57:55;12.90;;;5.00;;
57331;SDS011;43164;50.908;18.092;2024-02-21T13:04:11;13.00;;;5.20;;
57331;SDS011;43164;50.908;18.092;2024-02-21T13:06:38;12.00;;;5.40;;
57331;SDS011;43164;50.908;18.092;2024-02-21T13:09:12;13.20;;;5.40;;
57331;SDS011;43164;50.908;18.092;2024-02-21T13:11:40;16.40;;;5.30;;
57331;SDS011;43164;50.908;18.092;2024-02-21T13:14:17;12.30;;;4.70;;
57331;SDS011;43164;50.908;18.092;2024-02-21T13:16:45;11.20;;;5.00;;
57331;SDS011;43164;50.908;18.092;2024-02-21T13:19:13;13.00;;;5.10;;
57331;SDS011;43164;50.908;18.092;2024-02-21T13:21:47;10.40;;;4.90;;
57331;SDS011;43164;50.908;18.092;2024-02-21T13:24:22;12.90;;;5.00;;
57331;SDS011;43164;50.908;18.092;2024-02-21T13:26:50;10.10;;;4.40;;
57331;SDS011;43164;50.908;18.092;2024-02-21T13:29:18;12.10;;;5.00;;
57331;SDS011;43164;50.908;18.092;2024-02-21T13:31:50;15.30;;;6.40;;
57331;SDS011;43164;50.908;18.092;2024-02-21T13:34:20;11.70;;;5.40;;
57331;SDS011;43164;50.908;18.092;2024-02-21T13:36:50;12.20;;;5.00;;
57331;SDS011;43164;50.908;18.092;2024-02-21T13:39:18;12.90;;;5.60;;
57331;SDS011;43164;50.908;18.092;2024-02-21T13:41:47;15.10;;;5.90;;
57331;SDS011;43164;50.908;18.092;2024-02-21T13:44:16;13.40;;;5.00;;
57331;SDS011;43164;50.908;18.092;2024-02-21T13:49:29;12.10;;;5.10;;
57331;SDS011;43164;50.908;18.092;2024-02-21T13:51:57;11.90;;;4.90;;
57331;SDS011;43164;50.908;18.092;2024-02-21T13:54:25;12.70;;;5.40;;
57331;SDS011;43164;50.908;18.092;2024-02-21T13:56:53;13.70;;;5.00;;
57331;SDS011;43164;50.908;18.092;2024-02-21T13:59:21;14.50;;;5.40;;
57331;SDS011;43164;50.908;18.092;2024-02-21T14:01:51;12.40;;;5.00;;
57331;SDS011;43164;50.908;18.092;2024-02-21T14:04:43;10.10;;;4.80;;
57331;SDS011;43164;50.908;18.092;2024-02-21T14:07:11;11.70;;;5.30;;
57331;SDS011;43164;50.908;18.092;2024-02-21T14:09:38;12.60;;;5.30;;
57331;SDS011;43164;50.908;18.092;2024-02-21T14:12:07;10.00;;;4.70;;
57331;SDS011;43164;50.908;18.092;2024-02-21T14:14:35;9.10;;;4.20;;
57331;SDS011;43164;50.908;18.092;2024-02-21T14:17:03;10.50;;;4.70;;
57331;SDS011;43164;50.908;18.092;2024-02-21T14:19:31;10.60;;;4.70;;
57331;SDS011;43164;50.908;18.092;2024-02-21T14:21:59;11.10;;;4.40;;
57331;SDS011;43164;50.908;18.092;2024-02-21T14:24:28;11.30;;;3.90;;
57331;SDS011;43164;50.908;18.092;2024-02-21T14:26:56;12.10;;;4.90;;
57331;SDS011;43164;50.908;18.092;2024-02-21T14:29:24;9.50;;;4.20;;
57331;SDS011;43164;50.908;18.092;2024-02-21T14:31:52;10.80;;;4.20;;
57331;SDS011;43164;50.908;18.092;2024-02-21T14:34:19;9.80;;;3.90;;
57331;SDS011;43164;50.908;18.092;2024-02-21T14:36:47;11.10;;;4.20;;
57331;SDS011;43164;50.908;18.092;2024-02-21T14:39:15;9.20;;;3.50;;
57331;SDS011;43164;50.908;18.092;2024-02-21T14:41:43;9.10;;;3.80;;
57331;SDS011;43164;50.908;18.092;2024-02-21T14:44:11;10.60;;;3.80;;
57331;SDS011;43164;50.908;18.092;2024-02-21T14:46:44;10.10;;;4.00;;
57331;SDS011;43164;50.908;18.092;2024-02-21T14:49:12;9.80;;;4.60;;
57331;SDS011;43164;50.908;18.092;2024-02-21T14:51:40;10.90;;;5.10;;
57331;SDS011;43164;50.908;18.092;2024-02-21T14:54:07;12.00;;;5.20;;
57331;SDS011;43164;50.908;18.092;2024-02-21T14:56:36;10.90;;;4.60;;
57331;SDS011;43164;50.908;18.092;2024-02-21T14:59:03;12.60;;;4.80;;
57331;SDS011;43164;50.908;18.092;2024-02-21T15:01:40;12.60;;;5.50;;
57331;SDS011;43164;50.908;18.092;2024-02-21T15:04:08;13.10;;;5.00;;
57331;SDS011;43164;50.908;18.092;2024-02-21T15:06:36;10.60;;;4.50;;
57331;SDS011;43164;50.908;18.092;2024-02-21T15:09:05;11.60;;;4.80;;
57331;SDS011;43164;50.908;18.092;2024-02-21T15:11:34;13.50;;;5.60;;
57331;SDS011;43164;50.908;18.092;2024-02-21T15:14:01;11.70;;;5.70;;